[Jeden Freitag | 18:00z - 21:00z| EDDF] Frankfurt Friday

Zu Eventkalender hinzugefügt: 53 Daten

Jan Hergeth

1419731
RG Frankfurt - Leitung
RG Frankfurt - Mentor
Heute ist Frankfurt Friday und damit das "Aufwärmen" für das morgige Overload-Event! :)
Wir freuen uns bei Böen bis 35kt auf wetterfeste Piloten ;)
EDDF 051100Z 0512/0618 21015G25KT 9999 FEW025 SCT040 TEMPO 0513/0518 22020G30KT 4000 SHRA BKN020CB PROB30 TEMPO 0516/0518 22025G35KT 2500 TSRA BKN014CB BECMG 0518/0520 22013KT BECMG 0522/0524 21008KT
 

Jan Hergeth

1419731
RG Frankfurt - Leitung
RG Frankfurt - Mentor
Ein weiterer Freitag, ein weiteres Mal Frankfurt voll besetzt! Nach einem Tag mit herrlichem Wetter bieten wir euch nun die Möglichkeit, den Tag entspannt im Flusi ausklingen zu lassen :)
 

Jan Hergeth

1419731
RG Frankfurt - Leitung
RG Frankfurt - Mentor
Freitag, das heißt Frankfurt ist voll besetzt und bietet besten ATC Service! Außerdem legt @Kjeld Sennejunker heute sein CPT auf EDDF_N_APP ab, also unterstützt ihn mit einem Flug von oder nach EDDF! :)
Am frühen Abend gibt es noch einige Böen, die im weiteren Verlauf jedoch eure Anflüge in der Eventzeit nicht beeinflussen sollten!
EDDF 241100Z 2412/2518 26010KT CAVOK PROB30 TEMPO 2414/2416 31015G25KT BECMG 2420/2422 24004KT
 
Viel Erfolg! War super und hat Spaß gemacht, es wurde sich sogar um einen visual 25C swing-over bemüht :p
In der Screenshot-Ecke finden sich ein paar Eindrücke aus der Cockpit/-Piloten Sicht :D
 
Oben